Time;durP1;ratioP1;P1;durP2;ratioP2;P2;SDS_P1;SDS_P2;PMS_P1;PMS_P2;Temp;Humidity;BMP_temperature;BMP_pressure;BME280_temperature;BME280_humidity;BME280_pressure;Samples;Min_cycle;Max_cycle;Signal;HPM_P1;HPM_P2
2023/06/15 00:01:21;;;;;;;1.15;1.00;;;25.00;51.70;;;;;;6094123;29;20051;-53
2023/06/15 00:04:22;;;;;;;0.70;0.68;;;25.10;51.60;;;;;;6095363;29;20048;-55
2023/06/15 00:07:23;;;;;;;1.13;0.85;;;25.00;51.60;;;;;;6095980;29;20075;-53
2023/06/15 00:10:25;;;;;;;1.10;1.00;;;24.80;51.40;;;;;;6096707;29;20040;-52
2023/06/15 00:13:29;;;;;;;1.15;0.90;;;24.90;51.40;;;;;;6096728;29;20055;-53
2023/06/15 00:16:31;;;;;;;1.10;1.00;;;24.80;50.40;;;;;;6100883;29;20104;-53
2023/06/15 00:19:36;;;;;;;0.90;0.70;;;25.10;51.30;;;;;;6100867;29;20032;-55
2023/06/15 00:22:41;;;;;;;1.20;1.00;;;24.90;51.30;;;;;;6100575;29;20047;-52
2023/06/15 00:25:43;;;;;;;0.95;0.85;;;25.10;51.30;;;;;;6129446;29;20107;-53
2023/06/15 00:28:44;;;;;;;0.93;0.88;;;24.70;51.10;;;;;;6100391;29;20048;-54
2023/06/15 00:31:46;;;;;;;0.98;0.88;;;25.00;51.40;;;;;;6099882;29;20040;-53
2023/06/15 00:34:50;;;;;;;0.82;0.80;;;24.60;51.00;;;;;;6099893;29;20036;-54
2023/06/15 00:37:52;;;;;;;1.00;0.90;;;24.70;51.00;;;;;;6099476;29;20580;-54
2023/06/15 00:40:55;;;;;;;1.23;1.00;;;25.10;51.40;;;;;;6098681;29;20074;-55
2023/06/15 00:43:56;;;;;;;1.13;1.02;;;24.50;51.00;;;;;;6099018;29;20051;-54
2023/06/15 00:47:00;;;;;;;0.80;0.80;;;24.90;51.20;;;;;;6098963;29;20120;-55
2023/06/15 00:50:09;;;;;;;1.40;1.10;;;24.90;51.20;;;;;;6099792;29;20036;-52
2023/06/15 00:53:14;;;;;;;0.90;0.70;;;24.90;51.00;;;;;;6098585;29;20044;-55
2023/06/15 00:56:17;;;;;;;1.10;0.90;;;24.50;51.50;;;;;;6098781;29;20044;-53
2023/06/15 00:59:21;;;;;;;1.02;0.93;;;24.60;50.90;;;;;;6099713;29;20073;-53
2023/06/15 01:02:24;;;;;;;1.00;0.90;;;24.80;51.00;;;;;;6099847;29;20040;-52
2023/06/15 01:05:32;;;;;;;1.20;1.00;;;25.00;51.30;;;;;;6099812;29;20044;-53
2023/06/15 01:08:34;;;;;;;1.20;1.00;;;24.90;51.30;;;;;;6175699;23;20047;-81
2023/06/15 01:11:36;;;;;;;1.02;0.88;;;24.60;51.50;;;;;;6199516;28;20071;-81
2023/06/15 01:14:38;;;;;;;1.10;1.00;;;24.80;51.40;;;;;;6200472;28;20047;-81
2023/06/15 01:17:45;;;;;;;1.00;0.90;;;24.90;51.50;;;;;;6166766;29;20043;-81
2023/06/15 01:20:48;;;;;;;1.10;1.00;;;24.70;51.20;;;;;;6308750;23;20062;-59
2023/06/15 01:23:58;;;;;;;0.82;0.82;;;24.90;51.10;;;;;;6146965;29;20040;-60
2023/06/15 01:27:04;;;;;;;0.90;0.70;;;24.90;50.90;;;;;;6146292;28;20031;-59
2023/06/15 01:30:11;;;;;;;1.00;0.90;;;24.70;50.90;;;;;;6146809;28;20050;-59
2023/06/15 01:33:16;;;;;;;1.10;1.00;;;24.70;51.00;;;;;;6145278;29;20525;-59
2023/06/15 01:36:19;;;;;;;0.98;0.88;;;25.00;51.20;;;;;;6145628;29;20071;-59
2023/06/15 01:39:21;;;;;;;1.25;0.95;;;24.50;50.80;;;;;;6177020;28;20047;-59
2023/06/15 01:42:24;;;;;;;1.23;0.70;;;24.90;51.20;;;;;;6145719;28;20046;-59
2023/06/15 01:45:28;;;;;;;0.90;0.80;;;25.00;51.20;;;;;;6145921;29;20506;-60
2023/06/15 01:48:30;;;;;;;1.23;0.90;;;24.90;51.10;;;;;;6146035;29;20292;-60
2023/06/15 01:51:34;;;;;;;1.00;0.80;;;25.10;51.20;;;;;;6145634;28;20040;-60
2023/06/15 01:54:36;;;;;;;1.40;0.95;;;24.70;51.00;;;;;;6145436;29;20043;-60
2023/06/15 01:57:40;;;;;;;0.80;0.70;;;25.10;51.30;;;;;;6145339;28;20055;-60
2023/06/15 02:00:41;;;;;;;0.77;0.77;;;25.00;51.10;;;;;;6146163;28;20042;-60
2023/06/15 02:03:43;;;;;;;1.10;0.80;;;25.10;52.00;;;;;;6144656;28;20035;-59
2023/06/15 02:06:46;;;;;;;1.00;0.75;;;24.80;51.20;;;;;;6143342;28;20036;-60
2023/06/15 02:09:47;;;;;;;0.90;0.90;;;24.90;51.30;;;;;;6144910;28;20048;-60
2023/06/15 02:12:49;;;;;;;1.15;0.93;;;24.60;51.10;;;;;;6144870;28;20043;-60
2023/06/15 02:15:53;;;;;;;0.98;0.80;;;25.00;51.30;;;;;;6144860;28;20097;-60
2023/06/15 02:18:56;;;;;;;0.70;0.70;;;25.00;51.30;;;;;;6145153;28;20284;-60
2023/06/15 02:22:00;;;;;;;0.75;0.75;;;25.10;51.40;;;;;;6143999;28;20040;-60
2023/06/15 02:25:03;;;;;;;0.85;0.80;;;25.10;51.20;;;;;;6142290;28;20050;-60
2023/06/15 02:28:05;;;;;;;0.80;0.70;;;24.90;51.30;;;;;;6143619;28;20417;-60
2023/06/15 02:31:07;;;;;;;1.00;0.90;;;24.90;51.30;;;;;;6144773;28;20035;-60
2023/06/15 02:34:08;;;;;;;1.65;1.20;;;25.00;51.50;;;;;;6143906;28;20047;-60
2023/06/15 02:37:11;;;;;;;1.10;1.00;;;24.90;51.50;;;;;;6144578;28;20406;-60
2023/06/15 02:40:13;;;;;;;1.13;1.02;;;24.90;51.50;;;;;;6144793;28;20441;-60
2023/06/15 02:43:17;;;;;;;1.05;0.80;;;25.00;51.40;;;;;;6144875;28;20051;-60
2023/06/15 02:46:22;;;;;;;1.00;0.90;;;24.60;51.30;;;;;;6143977;28;20536;-60
2023/06/15 02:49:26;;;;;;;1.20;1.10;;;24.90;51.40;;;;;;6144120;28;20031;-60
2023/06/15 02:52:30;;;;;;;1.20;1.05;;;25.00;51.60;;;;;;6144254;28;20039;-60
2023/06/15 02:55:37;;;;;;;0.80;0.70;;;25.00;51.50;;;;;;6143082;29;20065;-60
2023/06/15 02:58:42;;;;;;;1.20;0.90;;;24.60;51.50;;;;;;6144188;28;20035;-60
2023/06/15 03:01:51;;;;;;;1.00;0.80;;;25.00;51.60;;;;;;6144090;28;20313;-60
2023/06/15 03:04:56;;;;;;;1.10;0.95;;;25.00;51.90;;;;;;6145093;28;20074;-60
2023/06/15 03:08:05;;;;;;;0.88;0.88;;;24.90;51.80;;;;;;6144642;28;20035;-60
2023/06/15 03:11:19;;;;;;;0.70;0.70;;;24.90;51.80;;;;;;6143933;28;20043;-60
2023/06/15 03:14:26;;;;;;;0.88;0.80;;;24.90;51.70;;;;;;6144306;28;20043;-60
2023/06/15 03:17:29;;;;;;;0.77;0.73;;;25.00;51.70;;;;;;6143479;28;20572;-60
2023/06/15 03:20:32;;;;;;;1.25;1.13;;;24.30;51.50;;;;;;6145345;28;20039;-59
2023/06/15 03:23:37;;;;;;;1.17;1.00;;;25.00;51.90;;;;;;6143397;28;20082;-59
2023/06/15 03:26:42;;;;;;;1.13;1.02;;;24.90;51.90;;;;;;6144171;28;20101;-59
2023/06/15 03:29:49;;;;;;;1.02;0.93;;;24.90;52.00;;;;;;6143795;29;20506;-59
2023/06/15 03:32:53;;;;;;;1.27;0.90;;;24.90;51.90;;;;;;6143767;28;20043;-59
2023/06/15 03:35:55;;;;;;;1.45;0.95;;;24.40;51.90;;;;;;6142692;28;20035;-59
2023/06/15 03:38:57;;;;;;;1.20;1.10;;;24.90;52.00;;;;;;6143671;28;20044;-59
2023/06/15 03:42:02;;;;;;;1.20;1.10;;;24.70;52.00;;;;;;6142753;29;20058;-59
2023/06/15 03:45:07;;;;;;;0.88;0.82;;;24.90;51.60;;;;;;6142582;28;20051;-60
2023/06/15 03:48:09;;;;;;;1.17;0.90;;;24.80;52.10;;;;;;6144016;28;20047;-59
2023/06/15 03:51:11;;;;;;;0.80;0.80;;;25.00;52.30;;;;;;6144166;28;20052;-59
2023/06/15 03:54:16;;;;;;;1.00;0.90;;;24.90;52.20;;;;;;6144238;28;20039;-59
2023/06/15 03:57:17;;;;;;;0.68;0.60;;;24.90;52.20;;;;;;6143220;28;20039;-59
2023/06/15 04:00:21;;;;;;;0.80;0.77;;;24.90;52.40;;;;;;6142122;28;20480;-59
2023/06/15 04:03:27;;;;;;;0.98;0.85;;;24.90;52.40;;;;;;6144057;28;20043;-59
2023/06/15 04:06:29;;;;;;;0.80;0.80;;;24.70;52.40;;;;;;6144627;28;20489;-59
2023/06/15 04:09:31;;;;;;;1.33;1.05;;;24.80;52.50;;;;;;6144386;28;20035;-59
2023/06/15 04:12:33;;;;;;;1.00;0.90;;;24.80;52.60;;;;;;6143388;28;20039;-59
2023/06/15 04:15:35;;;;;;;0.80;0.80;;;24.70;52.50;;;;;;6142771;28;20044;-59
2023/06/15 04:18:38;;;;;;;1.25;1.15;;;24.90;52.60;;;;;;6142685;28;20114;-59
2023/06/15 04:21:41;;;;;;;1.25;0.80;;;24.70;52.40;;;;;;6143519;28;20066;-59
2023/06/15 04:24:45;;;;;;;1.00;0.90;;;24.70;52.60;;;;;;6142975;28;20047;-59
2023/06/15 04:27:47;;;;;;;1.10;0.85;;;24.80;52.50;;;;;;6141965;28;20228;-59
2023/06/15 04:31:06;;;;;;;1.00;0.90;;;24.70;52.60;;;;;;6142353;28;20702;-59
2023/06/15 04:34:08;;;;;;;1.02;0.93;;;24.80;52.60;;;;;;6140928;29;20099;-59
2023/06/15 04:37:11;;;;;;;0.95;0.85;;;24.80;52.90;;;;;;6143205;28;20027;-59
2023/06/15 04:40:14;;;;;;;2.10;1.33;;;24.70;52.80;;;;;;6143025;28;20043;-59
2023/06/15 04:43:16;;;;;;;0.85;0.85;;;24.80;53.10;;;;;;6142803;28;20454;-59
2023/06/15 04:46:19;;;;;;;1.17;1.00;;;24.80;53.10;;;;;;6142442;28;20079;-59
2023/06/15 04:49:21;;;;;;;0.80;0.80;;;24.70;53.00;;;;;;6142322;28;20048;-59
2023/06/15 04:52:22;;;;;;;0.88;0.80;;;24.70;53.10;;;;;;6142427;28;20387;-59
2023/06/15 04:55:25;;;;;;;1.00;0.80;;;24.60;53.10;;;;;;6141975;28;20465;-59
2023/06/15 04:58:26;;;;;;;0.80;0.80;;;24.70;53.20;;;;;;6142461;28;20032;-59
2023/06/15 05:01:29;;;;;;;1.30;1.15;;;24.10;53.00;;;;;;6142177;28;20039;-59
2023/06/15 05:04:30;;;;;;;0.80;0.80;;;24.70;53.10;;;;;;6143551;28;20118;-59
2023/06/15 05:07:32;;;;;;;1.00;0.90;;;24.70;53.50;;;;;;6143806;28;20090;-59
2023/06/15 05:10:34;;;;;;;1.85;0.80;;;24.70;53.50;;;;;;6144799;28;20042;-59
2023/06/15 05:13:49;;;;;;;1.00;0.90;;;24.20;53.30;;;;;;6146010;28;20561;-59
2023/06/15 05:16:51;;;;;;;0.80;0.80;;;24.80;53.60;;;;;;6143591;28;20677;-59
2023/06/15 05:19:53;;;;;;;1.20;1.10;;;24.30;53.40;;;;;;6143993;28;20054;-59
2023/06/15 05:22:56;;;;;;;1.00;0.80;;;24.70;53.70;;;;;;6145938;28;20086;-58
2023/06/15 05:25:59;;;;;;;1.10;0.80;;;24.70;53.70;;;;;;6183476;28;20047;-58
2023/06/15 05:29:04;;;;;;;1.15;1.00;;;24.50;53.50;;;;;;6184626;28;20043;-57
2023/06/15 05:32:09;;;;;;;1.13;1.02;;;24.70;53.90;;;;;;6182884;28;20059;-57
2023/06/15 05:35:12;;;;;;;0.98;0.88;;;24.80;53.80;;;;;;6183172;28;20051;-58
2023/06/15 05:38:14;;;;;;;1.88;0.90;;;24.70;54.00;;;;;;6183515;28;20070;-57
2023/06/15 05:41:17;;;;;;;1.02;0.93;;;24.70;54.00;;;;;;6183495;28;20039;-57
2023/06/15 05:44:18;;;;;;;1.42;1.00;;;24.50;53.90;;;;;;6183208;28;20046;-58
2023/06/15 05:47:20;;;;;;;1.02;0.77;;;24.50;53.90;;;;;;6179472;28;20024;-57
2023/06/15 05:50:22;;;;;;;0.88;0.80;;;24.60;54.00;;;;;;6180261;28;20035;-57
2023/06/15 05:53:24;;;;;;;1.00;0.90;;;24.60;54.10;;;;;;6175211;28;20035;-58
2023/06/15 05:56:26;;;;;;;1.20;1.00;;;24.60;54.10;;;;;;6176322;28;20070;-58
2023/06/15 05:59:28;;;;;;;1.20;0.88;;;24.70;54.20;;;;;;6177264;28;20032;-59
2023/06/15 06:02:36;;;;;;;1.10;1.00;;;24.70;54.20;;;;;;6177741;28;20127;-57
2023/06/15 06:05:38;;;;;;;1.88;1.00;;;24.70;54.20;;;;;;6178066;28;20032;-58
2023/06/15 06:08:43;;;;;;;1.00;0.90;;;24.50;54.20;;;;;;6178452;28;20039;-58
2023/06/15 06:11:47;;;;;;;1.50;0.90;;;24.70;54.30;;;;;;6173413;28;20027;-58
2023/06/15 06:14:52;;;;;;;1.20;1.10;;;24.70;54.30;;;;;;6172392;28;20035;-58
2023/06/15 06:17:55;;;;;;;1.05;0.95;;;24.70;54.40;;;;;;6165579;28;20509;-57
2023/06/15 06:20:59;;;;;;;1.08;0.98;;;24.70;54.60;;;;;;6167915;28;20047;-58
2023/06/15 06:24:02;;;;;;;1.15;1.05;;;24.10;54.20;;;;;;6173058;28;20043;-58
2023/06/15 06:27:05;;;;;;;1.33;1.10;;;24.40;54.40;;;;;;6176641;28;20023;-57
2023/06/15 06:30:07;;;;;;;1.58;1.20;;;24.50;54.40;;;;;;6177542;28;20039;-57
2023/06/15 06:33:09;;;;;;;2.90;1.10;;;24.60;54.50;;;;;;6181030;28;20114;-57
2023/06/15 06:36:11;;;;;;;1.15;1.00;;;24.50;54.50;;;;;;6174273;28;20059;-58
2023/06/15 06:39:12;;;;;;;1.38;0.95;;;24.60;54.70;;;;;;6167815;28;20050;-57
2023/06/15 06:42:14;;;;;;;7.93;5.18;;;24.30;54.80;;;;;;6171077;28;20094;-57
2023/06/15 06:45:21;;;;;;;5.95;4.50;;;24.80;55.10;;;;;;6164576;28;20067;-57
2023/06/15 06:48:23;;;;;;;6.30;4.93;;;24.60;55.00;;;;;;6175234;28;20079;-58
2023/06/15 06:51:25;;;;;;;8.75;5.50;;;24.60;55.20;;;;;;6174219;28;20035;-57
2023/06/15 06:54:26;;;;;;;9.27;6.38;;;24.20;55.20;;;;;;6142889;28;20552;-57
2023/06/15 06:57:31;;;;;;;9.23;6.22;;;24.70;55.80;;;;;;6136939;28;20031;-57
2023/06/15 07:00:32;;;;;;;7.88;5.65;;;25.10;57.00;;;;;;6150002;28;20027;-58
2023/06/15 07:03:35;;;;;;;14.77;10.15;;;24.30;55.90;;;;;;6142898;28;20070;-59
2023/06/15 07:06:37;;;;;;;12.68;7.85;;;24.60;56.10;;;;;;6130178;28;20114;-58
2023/06/15 07:09:39;;;;;;;6.93;4.60;;;24.20;56.20;;;;;;6130302;28;20066;-56
2023/06/15 07:12:41;;;;;;;8.40;3.85;;;24.20;56.10;;;;;;6147915;29;20031;-58
2023/06/15 07:15:42;;;;;;;6.70;3.10;;;25.80;57.20;;;;;;6150045;28;20359;-56
2023/06/15 07:18:45;;;;;;;6.97;2.78;;;24.50;56.60;;;;;;6132021;28;20023;-56
2023/06/15 07:21:46;;;;;;;4.70;2.80;;;24.50;56.60;;;;;;6131912;28;20042;-51
2023/06/15 07:24:48;;;;;;;3.20;2.28;;;24.70;56.30;;;;;;6122400;28;20050;-60
2023/06/15 07:27:49;;;;;;;3.13;2.40;;;24.40;56.50;;;;;;6125826;28;20043;-58
2023/06/15 07:30:53;;;;;;;5.15;2.08;;;24.70;56.60;;;;;;6126625;28;20043;-60
2023/06/15 07:33:56;;;;;;;3.42;2.10;;;24.70;56.60;;;;;;6123904;28;20032;-56
2023/06/15 07:36:59;;;;;;;7.60;2.58;;;24.80;56.80;;;;;;6101933;28;20350;-58
2023/06/15 07:40:05;;;;;;;2.35;1.80;;;24.70;56.90;;;;;;6119462;28;20724;-61
2023/06/15 07:43:06;;;;;;;5.28;1.83;;;24.80;57.20;;;;;;6058936;28;20043;-60
2023/06/15 07:46:08;;;;;;;2.58;1.90;;;25.00;57.20;;;;;;6064619;28;20751;-59
2023/06/15 07:49:10;;;;;;;3.67;1.58;;;25.10;57.10;;;;;;6077750;28;20038;-60
2023/06/15 07:52:12;;;;;;;1.85;1.52;;;24.90;56.90;;;;;;6094001;28;20039;-59
2023/06/15 07:55:14;;;;;;;3.17;1.30;;;24.40;56.30;;;;;;6096413;28;20118;-60
2023/06/15 07:58:15;;;;;;;2.47;1.30;;;25.00;56.60;;;;;;6096752;28;20503;-61
2023/06/15 08:01:17;;;;;;;1.90;1.50;;;24.90;56.30;;;;;;6111124;28;20039;-60
2023/06/15 08:04:19;;;;;;;2.30;1.35;;;25.10;56.40;;;;;;6127586;28;20043;-59
2023/06/15 08:07:20;;;;;;;1.80;1.48;;;25.00;56.10;;;;;;6127928;28;20047;-60
2023/06/15 08:10:24;;;;;;;1.40;1.10;;;25.20;56.30;;;;;;6129510;28;20703;-57
2023/06/15 08:13:26;;;;;;;1.58;1.23;;;25.10;56.50;;;;;;6121247;28;20515;-58
2023/06/15 08:16:28;;;;;;;1.10;1.00;;;25.30;56.40;;;;;;6119327;28;20050;-59
2023/06/15 08:19:30;;;;;;;2.40;1.00;;;25.10;56.00;;;;;;6129143;28;20044;-59
2023/06/15 08:22:33;;;;;;;1.17;1.08;;;25.30;56.20;;;;;;6127372;28;20032;-60
2023/06/15 08:25:34;;;;;;;1.67;1.10;;;25.20;56.10;;;;;;6127302;28;20070;-59
2023/06/15 08:28:36;;;;;;;1.25;1.05;;;25.40;56.10;;;;;;6120086;28;20046;-58
2023/06/15 08:31:54;;;;;;;2.13;1.38;;;24.70;55.70;;;;;;6123103;28;20035;-57
2023/06/15 08:34:57;;;;;;;1.45;1.35;;;25.00;55.90;;;;;;6108655;28;20731;-59
2023/06/15 08:37:58;;;;;;;1.75;1.40;;;25.20;56.00;;;;;;6131429;28;20614;-58
2023/06/15 08:41:00;;;;;;;2.00;1.50;;;25.40;56.00;;;;;;6131109;28;20659;-57
2023/06/15 08:44:04;;;;;;;1.40;1.30;;;25.50;56.30;;;;;;6126398;28;20646;-58
2023/06/15 08:47:05;;;;;;;2.60;1.40;;;24.80;55.80;;;;;;6129159;28;20051;-58
2023/06/15 08:50:11;;;;;;;1.45;1.30;;;25.40;55.90;;;;;;6125054;28;20038;-58
2023/06/15 08:53:13;;;;;;;2.33;2.13;;;25.50;56.00;;;;;;6101722;28;20065;-58
2023/06/15 08:56:15;;;;;;;2.05;1.67;;;25.40;55.80;;;;;;6097250;28;20102;-58
2023/06/15 08:59:17;;;;;;;3.00;1.60;;;25.50;56.00;;;;;;6107581;28;20110;-58
2023/06/15 09:02:21;;;;;;;1.85;1.75;;;25.50;56.00;;;;;;6124415;28;20233;-58
2023/06/15 09:05:23;;;;;;;2.67;1.83;;;25.40;55.80;;;;;;6095952;29;20051;-58
2023/06/15 09:08:25;;;;;;;1.77;1.67;;;25.50;55.80;;;;;;6124274;28;20046;-57
2023/06/15 09:11:28;;;;;;;1.48;1.33;;;25.60;55.90;;;;;;6114064;28;20110;-55
2023/06/15 09:14:38;;;;;;;1.70;1.50;;;25.60;55.80;;;;;;6125678;28;20039;-53
2023/06/15 09:17:41;;;;;;;1.75;1.63;;;25.60;55.90;;;;;;6128214;28;20073;-56
2023/06/15 09:20:43;;;;;;;1.90;1.30;;;25.30;55.60;;;;;;6132648;28;20043;-55
2023/06/15 09:23:46;;;;;;;1.88;1.50;;;25.50;55.80;;;;;;6133862;28;20102;-55
2023/06/15 09:26:48;;;;;;;1.50;1.30;;;25.70;55.80;;;;;;6128762;28;20122;-57
2023/06/15 09:30:02;;;;;;;2.88;1.20;;;25.50;55.90;;;;;;6122415;28;20059;-57
2023/06/15 09:33:12;;;;;;;1.60;1.50;;;25.50;55.80;;;;;;6099018;29;20039;-57
2023/06/15 09:36:14;;;;;;;1.60;1.50;;;25.60;56.00;;;;;;6120438;29;20063;-58
2023/06/15 09:39:22;;;;;;;1.60;1.50;;;25.60;56.20;;;;;;6131314;28;20039;-58
2023/06/15 09:42:25;;;;;;;1.65;1.55;;;25.50;55.70;;;;;;6124705;29;20703;-59
2023/06/15 09:45:27;;;;;;;1.50;1.35;;;25.60;55.80;;;;;;6121352;28;20039;-55
2023/06/15 09:48:29;;;;;;;3.08;1.10;;;25.60;55.80;;;;;;6113732;28;20035;-55
2023/06/15 09:51:35;;;;;;;1.48;1.35;;;26.70;56.60;;;;;;6095301;28;20035;-55
2023/06/15 09:54:39;;;;;;;1.75;1.58;;;26.20;56.30;;;;;;6109039;28;20048;-53
2023/06/15 09:57:41;;;;;;;1.60;1.50;;;25.50;55.50;;;;;;6123032;29;20043;-59
2023/06/15 10:00:48;;;;;;;1.52;1.42;;;25.50;55.60;;;;;;6126865;28;20039;-59
2023/06/15 10:03:52;;;;;;;2.35;1.60;;;25.70;55.60;;;;;;6126690;28;20047;-59
2023/06/15 10:06:57;;;;;;;1.92;1.73;;;25.60;55.70;;;;;;6119986;29;20098;-60
2023/06/15 10:10:01;;;;;;;2.97;1.83;;;25.50;55.40;;;;;;6121236;28;20043;-59
2023/06/15 10:13:07;;;;;;;2.78;1.70;;;25.50;55.60;;;;;;6102211;28;20752;-60
2023/06/15 10:16:12;;;;;;;2.20;1.40;;;25.70;56.00;;;;;;6112864;28;20043;-59
2023/06/15 10:19:15;;;;;;;2.42;1.88;;;24.40;54.80;;;;;;6089100;28;20028;-64
2023/06/15 10:22:19;;;;;;;1.45;1.35;;;25.50;55.50;;;;;;6080092;28;20040;-64
2023/06/15 10:25:21;;;;;;;2.05;1.70;;;25.50;55.50;;;;;;6114802;28;20051;-64
2023/06/15 10:28:24;;;;;;;2.00;1.70;;;25.60;55.20;;;;;;6116965;28;20698;-64
2023/06/15 10:31:31;;;;;;;1.45;1.35;;;25.70;55.30;;;;;;6109309;28;20043;-64
2023/06/15 10:34:40;;;;;;;1.38;1.27;;;25.70;55.20;;;;;;6074017;28;20035;-64
2023/06/15 10:37:51;;;;;;;2.47;1.83;;;25.50;55.00;;;;;;6098323;28;20174;-65
2023/06/15 10:40:54;;;;;;;2.03;1.70;;;25.50;55.00;;;;;;6111421;28;20699;-64
2023/06/15 10:43:58;;;;;;;1.45;1.33;;;25.70;55.30;;;;;;6115914;28;20329;-64
2023/06/15 10:47:08;;;;;;;3.35;1.55;;;25.60;54.70;;;;;;6119683;29;20051;-63
2023/06/15 10:50:15;;;;;;;1.75;1.65;;;24.90;55.30;;;;;;6121750;29;20042;-62
2023/06/15 10:53:23;;;;;;;2.47;1.52;;;25.40;55.60;;;;;;6124888;28;20036;-61
2023/06/15 10:56:27;;;;;;;1.75;1.50;;;25.80;55.50;;;;;;6126957;28;20043;-61
2023/06/15 10:59:41;;;;;;;3.70;1.65;;;25.70;55.30;;;;;;6123034;28;20942;-61
2023/06/15 11:02:54;;;;;;;1.95;1.38;;;25.80;55.40;;;;;;6122317;28;20074;-62
2023/06/15 11:06:07;;;;;;;1.70;1.60;;;25.70;55.00;;;;;;6126400;28;20046;-62
2023/06/15 11:09:13;;;;;;;1.92;1.58;;;25.70;54.90;;;;;;6130441;28;20035;-62
2023/06/15 11:12:33;;;;;;;1.50;1.40;;;25.70;54.80;;;;;;6113788;29;20035;-62
2023/06/15 11:15:35;;;;;;;1.85;1.75;;;25.30;54.30;;;;;;6119515;29;20043;-62
2023/06/15 11:18:54;;;;;;;1.70;1.60;;;25.70;54.90;;;;;;6133830;28;20039;-62
2023/06/15 11:21:59;;;;;;;1.80;1.60;;;25.70;54.30;;;;;;6131871;28;20036;-62
2023/06/15 11:25:03;;;;;;;2.15;1.95;;;25.70;54.10;;;;;;6113137;29;20676;-62
2023/06/15 11:28:06;;;;;;;1.98;1.70;;;25.80;54.50;;;;;;6117490;28;20039;-61
2023/06/15 11:31:08;;;;;;;1.80;1.55;;;25.20;53.50;;;;;;6114316;29;20040;-62
2023/06/15 11:34:13;;;;;;;1.73;1.63;;;25.70;54.30;;;;;;6120113;28;20655;-62
2023/06/15 11:37:16;;;;;;;1.80;1.70;;;25.70;53.80;;;;;;6110862;28;20645;-62
2023/06/15 11:40:18;;;;;;;1.50;1.40;;;26.00;53.90;;;;;;6103785;28;20050;-61
2023/06/15 11:43:20;;;;;;;1.70;1.60;;;25.70;53.80;;;;;;6108351;28;20031;-63
2023/06/15 11:46:23;;;;;;;1.75;1.63;;;25.50;53.40;;;;;;6112586;28;20043;-62
2023/06/15 11:49:31;;;;;;;2.58;1.58;;;25.70;53.50;;;;;;6109317;28;20058;-63
2023/06/15 11:52:34;;;;;;;1.70;1.60;;;25.70;53.20;;;;;;6087957;28;20864;-62
2023/06/15 11:55:43;;;;;;;2.30;1.80;;;25.60;52.70;;;;;;6105100;28;20043;-61
2023/06/15 11:58:46;;;;;;;3.38;1.98;;;25.40;52.30;;;;;;6075098;28;20038;-61
2023/06/15 12:01:49;;;;;;;2.97;2.20;;;25.00;52.00;;;;;;6078577;28;20102;-59
2023/06/15 12:04:56;;;;;;;2.60;1.95;;;25.60;52.30;;;;;;6105564;28;20040;-61
2023/06/15 12:07:58;;;;;;;1.88;1.67;;;25.80;51.80;;;;;;6102827;28;20040;-59
2023/06/15 12:11:01;;;;;;;2.15;1.95;;;25.50;51.80;;;;;;6094942;28;20043;-59
2023/06/15 12:14:07;;;;;;;2.53;1.95;;;25.40;51.20;;;;;;6115819;28;20035;-59
2023/06/15 12:17:11;;;;;;;2.25;1.80;;;25.80;51.40;;;;;;6111320;29;20036;-59
2023/06/15 12:20:14;;;;;;;3.78;1.70;;;25.90;51.80;;;;;;6110485;28;20031;-60
2023/06/15 12:23:27;;;;;;;1.70;1.60;;;25.80;51.20;;;;;;6116809;28;20719;-60
2023/06/15 12:26:32;;;;;;;1.88;1.60;;;25.80;51.50;;;;;;6117486;28;20094;-60
2023/06/15 12:29:33;;;;;;;2.20;1.90;;;25.80;51.00;;;;;;6116539;29;20035;-59
2023/06/15 12:32:35;;;;;;;1.95;1.73;;;25.80;50.40;;;;;;6117445;29;20035;-59
2023/06/15 12:35:37;;;;;;;1.70;1.60;;;25.90;50.80;;;;;;6112979;28;20098;-58
2023/06/15 12:38:49;;;;;;;2.40;1.73;;;25.90;50.30;;;;;;6117563;28;20032;-59
2023/06/15 12:41:51;;;;;;;1.67;1.58;;;26.10;50.40;;;;;;6115182;28;20042;-60
2023/06/15 12:44:52;;;;;;;2.13;1.92;;;25.70;49.80;;;;;;6099229;28;20031;-60
2023/06/15 12:47:54;;;;;;;1.60;1.50;;;25.90;50.20;;;;;;6097722;28;20035;-60
2023/06/15 12:50:56;;;;;;;1.58;1.48;;;25.80;49.90;;;;;;6118744;28;20751;-60
2023/06/15 12:53:57;;;;;;;1.70;1.60;;;25.80;49.90;;;;;;6119385;28;20039;-59
2023/06/15 12:56:59;;;;;;;1.45;1.35;;;25.60;49.40;;;;;;6127764;28;20050;-60
2023/06/15 13:00:01;;;;;;;1.77;1.67;;;25.80;49.70;;;;;;6102656;28;20835;-61
2023/06/15 13:03:06;;;;;;;4.72;1.80;;;25.80;49.70;;;;;;6111335;29;20158;-59
2023/06/15 13:06:11;;;;;;;1.75;1.65;;;25.90;50.10;;;;;;6110984;28;20084;-60
2023/06/15 13:09:12;;;;;;;1.70;1.58;;;26.50;50.00;;;;;;6114970;28;20047;-59
2023/06/15 13:12:15;;;;;;;3.17;1.30;;;25.70;49.50;;;;;;6114400;28;20066;-59
2023/06/15 13:15:16;;;;;;;1.70;1.60;;;25.90;49.90;;;;;;6081311;28;20035;-59
2023/06/15 13:18:22;;;;;;;1.67;1.58;;;26.10;49.80;;;;;;6077942;28;20832;-58
2023/06/15 13:21:25;;;;;;;1.95;1.85;;;27.50;49.70;;;;;;6105532;28;20122;-61
2023/06/15 13:24:26;;;;;;;2.88;2.03;;;25.80;49.40;;;;;;6108594;28;20663;-60
2023/06/15 13:27:29;;;;;;;2.00;1.90;;;25.80;49.30;;;;;;6096433;28;20036;-59
2023/06/15 13:30:31;;;;;;;2.35;2.15;;;26.00;49.30;;;;;;6082083;29;20031;-59
2023/06/15 13:33:32;;;;;;;1.75;1.65;;;25.80;49.20;;;;;;6096602;28;20046;-59
2023/06/15 13:36:34;;;;;;;3.20;1.73;;;25.80;49.10;;;;;;6108778;28;20043;-60
2023/06/15 13:39:36;;;;;;;2.05;1.85;;;27.20;51.00;;;;;;6106896;28;20786;-59
2023/06/15 13:42:41;;;;;;;1.60;1.50;;;25.90;50.50;;;;;;6105410;28;20047;-59
2023/06/15 13:45:44;;;;;;;1.90;1.80;;;25.90;49.90;;;;;;6108029;28;20813;-58
2023/06/15 13:48:46;;;;;;;2.42;2.22;;;25.50;49.60;;;;;;6111254;28;20065;-59
2023/06/15 13:51:47;;;;;;;2.10;1.90;;;26.90;50.60;;;;;;6114544;28;20529;-56
2023/06/15 13:54:50;;;;;;;1.70;1.60;;;25.90;49.90;;;;;;6100778;28;20039;-56
2023/06/15 13:57:52;;;;;;;1.95;1.80;;;25.60;49.70;;;;;;6102708;28;20046;-56
2023/06/15 14:00:53;;;;;;;1.80;1.70;;;25.70;49.70;;;;;;6103609;28;20043;-59
2023/06/15 14:03:55;;;;;;;1.88;1.60;;;25.50;49.80;;;;;;6101725;28;20042;-61
2023/06/15 14:06:58;;;;;;;1.90;1.80;;;25.90;50.10;;;;;;6094985;28;20038;-60
2023/06/15 14:10:00;;;;;;;2.28;2.08;;;25.80;49.60;;;;;;6101477;28;20034;-60
2023/06/15 14:13:02;;;;;;;1.88;1.60;;;25.90;50.50;;;;;;6101741;28;20032;-61
2023/06/15 14:16:04;;;;;;;2.05;1.90;;;25.80;50.00;;;;;;6105852;28;20036;-62
2023/06/15 14:19:05;;;;;;;2.10;1.90;;;25.80;49.90;;;;;;6111323;28;20142;-60
2023/06/15 14:22:08;;;;;;;2.08;1.90;;;26.00;50.00;;;;;;6111029;28;20044;-60
2023/06/15 14:25:10;;;;;;;2.05;1.70;;;26.00;50.00;;;;;;6113724;29;20043;-60
2023/06/15 14:28:17;;;;;;;2.05;1.85;;;26.00;47.50;;;;;;6108360;28;20638;-62
2023/06/15 14:31:20;;;;;;;2.08;1.88;;;25.90;49.90;;;;;;6113197;28;20452;-63
2023/06/15 14:34:22;;;;;;;1.80;1.70;;;25.90;50.10;;;;;;6085314;28;20031;-65
2023/06/15 14:37:24;;;;;;;2.15;1.95;;;25.90;50.00;;;;;;6094047;28;20174;-67
2023/06/15 14:40:26;;;;;;;1.75;1.60;;;25.90;49.70;;;;;;6094145;28;20088;-68
2023/06/15 14:43:28;;;;;;;1.90;1.67;;;26.00;49.90;;;;;;6111076;28;20785;-65
2023/06/15 14:46:30;;;;;;;2.17;1.92;;;25.90;49.50;;;;;;6110332;29;20054;-64
2023/06/15 14:49:31;;;;;;;2.20;2.00;;;25.80;49.90;;;;;;6115529;28;20094;-62
2023/06/15 14:52:33;;;;;;;1.90;1.73;;;25.40;50.60;;;;;;6114961;28;20042;-62
2023/06/15 14:55:35;;;;;;;1.85;1.70;;;24.70;49.10;;;;;;6110546;28;20043;-64
2023/06/15 14:58:39;;;;;;;1.80;1.70;;;25.90;49.70;;;;;;6110713;28;20068;-63
2023/06/15 15:01:41;;;;;;;2.05;1.95;;;25.90;49.70;;;;;;6104139;28;20094;-60
2023/06/15 15:04:44;;;;;;;1.90;1.80;;;25.80;50.10;;;;;;6106723;28;20490;-59
2023/06/15 15:07:45;;;;;;;2.22;2.03;;;25.90;49.90;;;;;;6114653;28;20047;-59
2023/06/15 15:10:48;;;;;;;2.10;1.95;;;25.90;50.30;;;;;;6097460;28;20039;-61
2023/06/15 15:13:55;;;;;;;2.10;1.90;;;25.80;50.10;;;;;;6084316;28;20042;-60
2023/06/15 15:16:57;;;;;;;2.55;2.28;;;25.80;49.70;;;;;;6119056;28;20061;-65
2023/06/15 15:19:58;;;;;;;2.25;2.05;;;25.90;49.70;;;;;;6111112;28;20031;-61
2023/06/15 15:23:00;;;;;;;2.50;2.28;;;25.80;49.80;;;;;;6120211;28;20893;-62
2023/06/15 15:26:04;;;;;;;1.88;1.77;;;25.80;49.70;;;;;;6119007;28;20043;-62
2023/06/15 15:29:10;;;;;;;2.55;1.92;;;25.90;49.80;;;;;;6121586;28;20122;-62
2023/06/15 15:32:12;;;;;;;1.90;1.80;;;25.80;50.00;;;;;;6108937;29;20043;-62
2023/06/15 15:35:13;;;;;;;1.80;1.70;;;25.70;50.00;;;;;;6099860;28;20131;-61
2023/06/15 15:38:15;;;;;;;2.30;2.10;;;25.60;50.00;;;;;;6119063;28;20039;-66
2023/06/15 15:41:17;;;;;;;1.90;1.75;;;25.70;50.20;;;;;;6100216;28;20039;-64
2023/06/15 15:44:22;;;;;;;1.77;1.67;;;26.00;50.00;;;;;;6102830;29;20715;-62
2023/06/15 15:47:24;;;;;;;2.10;1.90;;;25.80;47.80;;;;;;6110181;28;20138;-61
2023/06/15 15:50:25;;;;;;;2.00;1.80;;;25.80;49.90;;;;;;6118482;28;20043;-60
2023/06/15 15:53:28;;;;;;;1.90;1.80;;;25.90;49.90;;;;;;6113748;28;20043;-63